Time,TemperatureF,DewpointF,PressureIn,WindDirection,WindDirectionDegrees,WindSpeedMPH,WindSpeedGustMPH,Humidity,HourlyPrecipIn,Conditions,Clouds,dailyrainin,SolarRadiationWatts/m^2,SoftwareType,DateUTC
2013-08-16 00:01:00,80.8,77.3,30.02,SSE,153,0.0,0.0,89,0.00,,FEW120,0.00,125.00,VWS V14.01,2013-08-16 04:01:00,
2013-08-16 00:06:00,80.8,77.3,30.02,SSE,154,0.0,1.0,89,0.00,,FEW120,0.00,125.00,VWS V14.01,2013-08-16 04:06:00,
2013-08-16 00:11:00,80.7,77.2,30.02,SSE,154,0.0,1.0,89,0.00,,FEW120,0.00,125.00,VWS V14.01,2013-08-16 04:11:00,
2013-08-16 00:16:00,80.6,77.1,30.02,SSE,154,0.0,0.0,89,0.00,,FEW120,0.00,125.00,VWS V14.01,2013-08-16 04:16:00,
2013-08-16 00:21:00,80.5,77.0,30.02,SSE,154,0.0,0.0,89,0.00,,FEW120,0.00,125.00,VWS V14.01,2013-08-16 04:21:00,
2013-08-16 00:26:00,80.4,76.9,30.02,SSE,154,0.0,0.0,89,0.00,,FEW120,0.00,125.00,VWS V14.01,2013-08-16 04:26:00,
2013-08-16 00:31:00,80.3,76.8,30.01,SSE,154,0.0,0.0,89,0.00,,FEW120,0.00,125.00,VWS V14.01,2013-08-16 04:31:00,
2013-08-16 00:36:00,80.3,76.8,30.01,SSE,154,0.0,0.0,89,0.00,,FEW120,0.00,125.00,VWS V14.01,2013-08-16 04:36:00,
2013-08-16 00:41:00,80.3,76.8,30.01,SSE,154,0.0,0.0,89,0.00,,FEW120,0.00,125.00,VWS V14.01,2013-08-16 04:41:00,
2013-08-16 00:46:00,80.3,76.8,30.01,SSE,154,0.0,0.0,89,0.00,,FEW120,0.00,125.00,VWS V14.01,2013-08-16 04:46:00,
2013-08-16 00:51:00,80.3,76.4,30.00,SSE,154,0.0,0.0,88,0.00,,FEW120,0.00,127.00,VWS V14.01,2013-08-16 04:51:00,
2013-08-16 00:56:00,80.3,76.4,30.00,SSE,154,0.0,0.0,88,0.00,,FEW120,0.00,125.00,VWS V14.01,2013-08-16 04:56:00,
2013-08-16 01:01:00,80.2,76.3,30.00,SSE,154,0.0,0.0,88,0.00,,FEW120,0.00,125.00,VWS V14.01,2013-08-16 05:01:00,
2013-08-16 01:06:00,80.2,76.3,30.00,SSE,154,0.0,0.0,88,0.00,,FEW120,0.00,125.00,VWS V14.01,2013-08-16 05:06:00,
2013-08-16 01:11:00,80.3,76.4,30.00,SSE,154,0.0,0.0,88,0.00,,FEW120,0.00,125.00,VWS V14.01,2013-08-16 05:11:00,
2013-08-16 01:16:00,80.3,76.4,30.00,SSE,154,0.0,0.0,88,0.00,,FEW120,0.00,125.00,VWS V14.01,2013-08-16 05:16:00,
2013-08-16 01:21:00,80.4,76.5,30.00,SSE,154,0.0,0.0,88,0.00,,FEW120,0.00,125.00,VWS V14.01,2013-08-16 05:21:00,
2013-08-16 01:26:00,80.4,76.5,30.00,SSE,154,0.0,0.0,88,0.00,,FEW120,0.00,125.00,VWS V14.01,2013-08-16 05:26:00,
2013-08-16 01:31:00,80.4,76.5,30.00,SSE,154,0.0,0.0,88,0.00,,FEW120,0.00,125.00,VWS V14.01,2013-08-16 05:31:00,
2013-08-16 01:36:00,80.4,76.5,30.00,SSE,154,0.0,0.0,88,0.00,,FEW120,0.00,125.00,VWS V14.01,2013-08-16 05:36:00,
2013-08-16 01:41:00,80.4,76.5,30.00,SSE,154,0.0,0.0,88,0.00,,FEW120,0.00,125.00,VWS V14.01,2013-08-16 05:41:00,
2013-08-16 01:46:00,80.4,76.5,29.99,SSE,154,0.0,0.0,88,0.00,,FEW120,0.00,125.00,VWS V14.01,2013-08-16 05:46:00,
2013-08-16 01:51:00,80.4,76.5,29.99,SSE,154,0.0,0.0,88,0.00,,FEW120,0.00,125.00,VWS V14.01,2013-08-16 05:51:00,
2013-08-16 01:56:00,80.4,76.9,29.98,SSE,154,0.0,0.0,89,0.00,,FEW120,0.00,125.00,VWS V14.01,2013-08-16 05:56:00,
2013-08-16 02:01:00,80.4,76.9,29.98,SSE,154,0.0,0.0,89,0.00,,FEW120,0.00,125.00,VWS V14.01,2013-08-16 06:01:00,
2013-08-16 02:06:00,80.4,76.9,29.98,SSE,154,0.0,0.0,89,0.00,,FEW120,0.00,125.00,VWS V14.01,2013-08-16 06:06:00,
2013-08-16 02:11:00,80.4,76.9,29.98,SSE,154,0.0,0.0,89,0.00,,FEW120,0.00,125.00,VWS V14.01,2013-08-16 06:11:00,
2013-08-16 02:16:00,80.5,77.0,29.98,SSE,154,0.0,0.0,89,0.00,,FEW120,0.00,125.00,VWS V14.01,2013-08-16 06:16:00,
2013-08-16 02:21:00,80.5,77.0,29.98,SSE,154,0.0,0.0,89,0.00,,FEW120,0.00,125.00,VWS V14.01,2013-08-16 06:21:00,
2013-08-16 02:26:00,80.4,76.9,29.98,SSE,154,0.0,0.0,89,0.00,,FEW120,0.00,125.00,VWS V14.01,2013-08-16 06:26:00,
2013-08-16 02:31:00,80.4,76.9,29.98,SSE,154,0.0,0.0,89,0.00,,FEW120,0.00,125.00,VWS V14.01,2013-08-16 06:31:00,
2013-08-16 02:36:00,80.3,76.8,29.98,SSE,154,0.0,0.0,89,0.00,,FEW120,0.00,125.00,VWS V14.01,2013-08-16 06:36:00,
2013-08-16 02:41:00,80.3,76.8,29.98,SSE,154,0.0,0.0,89,0.00,,FEW120,0.00,125.00,VWS V14.01,2013-08-16 06:41:00,
2013-08-16 02:46:00,80.4,76.9,29.98,SSE,154,0.0,0.0,89,0.00,,FEW120,0.00,125.00,VWS V14.01,2013-08-16 06:46:00,
2013-08-16 02:51:00,80.3,76.8,29.98,SSE,154,0.0,0.0,89,0.00,,FEW120,0.00,125.00,VWS V14.01,2013-08-16 06:51:00,
2013-08-16 02:56:00,80.3,77.1,29.97,SSE,154,0.0,0.0,90,0.00,,FEW120,0.00,125.00,VWS V14.01,2013-08-16 06:56:00,
2013-08-16 03:01:00,80.3,77.1,29.97,SSE,154,0.0,0.0,90,0.00,,FEW120,0.00,125.00,VWS V14.01,2013-08-16 07:01:00,
2013-08-16 03:06:00,80.2,77.0,29.97,SSE,154,0.0,0.0,90,0.00,,FEW120,0.00,125.00,VWS V14.01,2013-08-16 07:06:00,
2013-08-16 03:11:00,80.2,77.0,29.97,SSE,154,0.0,0.0,90,0.00,,FEW120,0.00,125.00,VWS V14.01,2013-08-16 07:11:00,
2013-08-16 03:16:00,80.3,77.1,29.97,SSE,154,0.0,0.0,90,0.00,,FEW120,0.00,125.00,VWS V14.01,2013-08-16 07:16:00,
2013-08-16 03:21:00,80.3,77.1,29.97,SSE,154,0.0,0.0,90,0.00,,FEW120,0.00,125.00,VWS V14.01,2013-08-16 07:21:00,
2013-08-16 03:26:00,80.3,77.1,29.97,SSE,154,0.0,0.0,90,0.00,,FEW120,0.00,125.00,VWS V14.01,2013-08-16 07:26:00,
2013-08-16 03:31:00,80.2,77.0,29.97,SSE,154,0.0,0.0,90,0.00,,FEW120,0.00,125.00,VWS V14.01,2013-08-16 07:31:00,
2013-08-16 03:35:00,80.1,76.9,29.97,SSE,154,0.0,0.0,90,0.00,,FEW120,0.00,125.00,VWS V14.01,2013-08-16 07:35:00,
2013-08-16 03:40:00,80.1,77.2,29.97,SSE,154,0.0,2.0,91,0.00,,FEW120,0.00,125.00,VWS V14.01,2013-08-16 07:40:00,
2013-08-16 03:45:00,80.0,77.1,29.97,SSE,153,0.0,0.0,91,0.00,,FEW120,0.00,125.00,VWS V14.01,2013-08-16 07:45:00,
2013-08-16 03:50:00,80.1,77.2,29.96,SSE,154,1.0,2.0,91,0.00,,FEW120,0.00,125.00,VWS V14.01,2013-08-16 07:50:00,
2013-08-16 03:55:00,80.1,77.2,29.96,SSE,154,2.0,2.0,91,0.00,,FEW120,0.00,125.00,VWS V14.01,2013-08-16 07:55:00,
2013-08-16 04:00:00,80.2,77.3,29.96,SSE,154,2.0,2.0,91,0.00,,FEW120,0.00,125.00,VWS V14.01,2013-08-16 08:00:00,
2013-08-16 04:05:00,79.9,77.0,29.96,SSE,150,4.0,4.0,91,0.00,,FEW120,0.00,125.00,VWS V14.01,2013-08-16 08:05:00,
2013-08-16 04:10:00,79.7,76.8,29.96,SSE,149,2.0,3.0,91,0.00,,FEW120,0.00,125.00,VWS V14.01,2013-08-16 08:10:00,
2013-08-16 04:15:00,79.8,76.9,29.96,SSE,150,1.0,1.0,91,0.00,,FEW120,0.00,125.00,VWS V14.01,2013-08-16 08:15:00,
2013-08-16 04:20:00,79.6,76.8,29.96,SSE,150,0.0,0.0,91,0.00,,FEW120,0.00,125.00,VWS V14.01,2013-08-16 08:20:00,
2013-08-16 04:25:00,79.5,76.7,29.96,SSE,150,0.0,1.0,91,0.00,,FEW120,0.00,125.00,VWS V14.01,2013-08-16 08:25:00,
2013-08-16 04:30:00,79.5,76.7,29.96,SSE,149,1.0,2.0,91,0.00,,FEW120,0.00,125.00,VWS V14.01,2013-08-16 08:30:00,
2013-08-16 04:35:00,79.4,76.6,29.96,SSE,148,0.0,0.0,91,0.00,,FEW120,0.00,125.00,VWS V14.01,2013-08-16 08:35:00,
2013-08-16 04:40:00,79.2,76.3,29.96,SSE,148,0.0,0.0,91,0.00,,FEW120,0.00,125.00,VWS V14.01,2013-08-16 08:40:00,
2013-08-16 04:45:00,79.1,76.2,29.96,SSE,148,0.0,0.0,91,0.00,,FEW120,0.00,125.00,VWS V14.01,2013-08-16 08:45:00,
2013-08-16 04:50:00,78.9,76.1,29.96,SSE,148,0.0,0.0,91,0.00,,FEW120,0.00,125.00,VWS V14.01,2013-08-16 08:50:00,
2013-08-16 04:55:00,78.8,75.9,29.97,SSE,148,0.0,0.0,91,0.00,,FEW120,0.00,125.00,VWS V14.01,2013-08-16 08:55:00,
2013-08-16 05:00:00,78.8,75.9,29.96,SSE,149,0.0,0.0,91,0.00,,FEW120,0.00,125.00,VWS V14.01,2013-08-16 09:00:00,
2013-08-16 05:05:00,78.9,76.1,29.97,SSE,148,1.0,1.0,91,0.00,,FEW120,0.00,125.00,VWS V14.01,2013-08-16 09:05:00,
2013-08-16 05:10:00,78.9,76.1,29.97,SSE,148,0.0,0.0,91,0.00,,FEW120,0.00,125.00,VWS V14.01,2013-08-16 09:10:00,
2013-08-16 05:15:00,78.9,76.1,29.97,SSE,148,0.0,0.0,91,0.00,,FEW120,0.00,125.00,VWS V14.01,2013-08-16 09:15:00,
2013-08-16 05:20:00,78.9,76.1,29.98,SSE,149,0.0,0.0,91,0.00,,FEW120,0.00,125.00,VWS V14.01,2013-08-16 09:20:00,
2013-08-16 05:25:00,78.9,76.1,29.98,SSE,148,0.0,0.0,91,0.00,,FEW120,0.00,125.00,VWS V14.01,2013-08-16 09:25:00,
2013-08-16 05:30:00,78.9,76.1,29.98,SSE,148,0.0,0.0,91,0.00,,FEW120,0.00,125.00,VWS V14.01,2013-08-16 09:30:00,
2013-08-16 05:35:00,78.9,76.1,29.98,SSE,148,0.0,0.0,91,0.00,,FEW120,0.00,125.00,VWS V14.01,2013-08-16 09:35:00,
2013-08-16 05:40:00,78.9,76.1,29.98,SSE,148,0.0,0.0,91,0.00,,FEW120,0.00,125.00,VWS V14.01,2013-08-16 09:40:00,
2013-08-16 05:45:00,78.9,76.1,29.98,SSE,148,0.0,0.0,91,0.00,,FEW120,0.00,125.00,VWS V14.01,2013-08-16 09:45:00,
2013-08-16 05:50:00,78.8,75.9,29.98,SSE,148,0.0,3.0,91,0.00,,FEW120,0.00,125.00,VWS V14.01,2013-08-16 09:50:00,
2013-08-16 05:55:00,78.7,75.9,29.98,SSE,148,0.0,1.0,91,0.00,,FEW120,0.00,125.00,VWS V14.01,2013-08-16 09:55:00,
2013-08-16 06:00:00,78.7,75.9,29.98,SSE,148,0.0,1.0,91,0.00,,FEW120,0.00,125.00,VWS V14.01,2013-08-16 10:00:00,
2013-08-16 06:05:00,78.7,75.9,29.98,SSE,148,0.0,1.0,91,0.00,,FEW120,0.00,125.00,VWS V14.01,2013-08-16 10:05:00,
2013-08-16 06:10:00,78.6,75.8,29.99,SSE,148,0.0,1.0,91,0.00,,FEW120,0.00,125.00,VWS V14.01,2013-08-16 10:10:00,
2013-08-16 06:15:00,78.6,75.8,29.99,SSE,148,0.0,0.0,91,0.00,,FEW120,0.00,125.00,VWS V14.01,2013-08-16 10:15:00,
2013-08-16 06:20:00,78.7,75.9,29.99,SSE,148,0.0,0.0,91,0.00,,FEW120,0.00,125.00,VWS V14.01,2013-08-16 10:20:00,
2013-08-16 06:25:00,78.7,75.9,29.99,SSE,148,0.0,0.0,91,0.00,,FEW120,0.00,125.00,VWS V14.01,2013-08-16 10:25:00,
2013-08-16 06:30:00,78.7,75.9,29.99,SSE,148,0.0,0.0,91,0.00,,FEW120,0.00,125.00,VWS V14.01,2013-08-16 10:30:00,
2013-08-16 06:35:00,78.7,75.9,29.99,SSE,148,0.0,1.0,91,0.00,,FEW120,0.00,125.00,VWS V14.01,2013-08-16 10:35:00,
2013-08-16 06:40:00,78.7,75.9,29.99,SSE,148,0.0,0.0,91,0.00,,FEW120,0.00,127.00,VWS V14.01,2013-08-16 10:40:00,
2013-08-16 06:45:00,78.7,75.9,29.99,SSE,148,0.0,0.0,91,0.00,,FEW120,0.00,127.00,VWS V14.01,2013-08-16 10:45:00,
2013-08-16 06:50:00,78.7,75.9,29.99,SSE,148,0.0,0.0,91,0.00,,FEW120,0.00,127.00,VWS V14.01,2013-08-16 10:50:00,
2013-08-16 06:55:00,78.7,75.9,30.00,SSE,148,0.0,0.0,91,0.00,,FEW120,0.00,127.00,VWS V14.01,2013-08-16 10:55:00,
2013-08-16 07:00:00,78.7,75.9,30.00,SSE,149,0.0,1.0,91,0.00,,FEW120,0.00,130.00,VWS V14.01,2013-08-16 11:00:00,
2013-08-16 07:05:00,78.7,75.9,30.00,SSE,149,0.0,1.0,91,0.00,,FEW120,0.00,134.00,VWS V14.01,2013-08-16 11:05:00,
2013-08-16 07:10:00,78.7,75.9,30.00,SSE,148,0.0,1.0,91,0.00,,FEW120,0.00,141.00,VWS V14.01,2013-08-16 11:10:00,
2013-08-16 07:15:00,78.7,75.9,30.00,SSE,148,0.0,1.0,91,0.00,,FEW120,0.00,146.00,VWS V14.01,2013-08-16 11:15:00,
2013-08-16 07:20:00,78.7,75.9,30.00,SSE,148,0.0,0.0,91,0.00,,FEW120,0.00,153.00,VWS V14.01,2013-08-16 11:20:00,
2013-08-16 07:25:00,78.8,75.9,30.00,SSE,148,0.0,1.0,91,0.00,,FEW120,0.00,158.00,VWS V14.01,2013-08-16 11:25:00,
2013-08-16 07:30:00,78.9,76.1,30.01,SSE,148,0.0,1.0,91,0.00,,FEW120,0.00,167.00,VWS V14.01,2013-08-16 11:30:00,
2013-08-16 07:35:00,79.0,76.2,30.00,SSE,148,0.0,1.0,91,0.00,,FEW120,0.00,174.00,VWS V14.01,2013-08-16 11:35:00,
2013-08-16 07:40:00,79.1,76.2,30.01,SSE,148,1.0,1.0,91,0.00,,FEW120,0.00,178.00,VWS V14.01,2013-08-16 11:40:00,
2013-08-16 07:45:00,79.1,76.2,30.01,SSE,148,0.0,1.0,91,0.00,,FEW120,0.00,178.00,VWS V14.01,2013-08-16 11:45:00,
2013-08-16 07:50:00,79.2,76.3,30.01,SSE,148,0.0,0.0,91,0.00,,FEW018,0.00,183.00,VWS V14.01,2013-08-16 11:50:00,
2013-08-16 07:55:00,79.4,76.6,30.01,SSE,148,0.0,1.0,91,0.00,,FEW018,0.00,192.00,VWS V14.01,2013-08-16 11:55:00,
2013-08-16 08:00:00,79.6,76.8,30.01,SSE,148,0.0,0.0,91,0.00,,FEW018,0.00,209.00,VWS V14.01,2013-08-16 12:00:00,
2013-08-16 08:05:00,79.8,76.9,30.01,SSE,148,0.0,1.0,91,0.00,,FEW018,0.00,220.00,VWS V14.01,2013-08-16 12:05:00,
2013-08-16 08:10:00,79.9,77.0,30.01,SSE,148,0.0,1.0,91,0.00,,FEW018,0.00,248.00,VWS V14.01,2013-08-16 12:10:00,
2013-08-16 08:15:00,80.2,77.3,30.01,SSE,148,0.0,1.0,91,0.00,,FEW018,0.00,288.00,VWS V14.01,2013-08-16 12:15:00,
2013-08-16 08:20:00,80.4,77.5,30.01,SSE,148,0.0,1.0,91,0.00,,FEW018,0.00,318.00,VWS V14.01,2013-08-16 12:20:00,
2013-08-16 08:25:00,80.8,77.9,30.01,SSE,149,0.0,0.0,91,0.00,,FEW018,0.00,341.00,VWS V14.01,2013-08-16 12:25:00,
2013-08-16 08:30:00,81.2,78.3,30.01,SSE,148,0.0,1.0,91,0.00,,FEW018,0.00,367.00,VWS V14.01,2013-08-16 12:30:00,
2013-08-16 08:35:00,81.6,78.7,30.01,SSE,149,0.0,2.0,91,0.00,,FEW018,0.00,294.00,VWS V14.01,2013-08-16 12:35:00,
2013-08-16 08:40:00,82.0,78.8,30.01,SSE,149,0.0,1.0,90,0.00,,FEW018,0.00,399.00,VWS V14.01,2013-08-16 12:40:00,
2013-08-16 08:45:00,82.5,79.3,30.01,SSE,148,0.0,0.0,90,0.00,,FEW018,0.00,388.00,VWS V14.01,2013-08-16 12:45:00,
2013-08-16 08:50:00,82.9,79.3,30.01,SSE,148,0.0,1.0,89,0.00,,FEW018,0.00,397.00,VWS V14.01,2013-08-16 12:50:00,
2013-08-16 08:55:00,83.3,79.4,30.01,SSE,149,2.0,3.0,88,0.00,,FEW018,0.00,424.00,VWS V14.01,2013-08-16 12:55:00,
2013-08-16 09:00:00,83.8,79.5,30.01,SSE,148,3.0,3.0,87,0.00,,FEW018,0.00,461.00,VWS V14.01,2013-08-16 13:00:00,
2013-08-16 09:05:00,84.2,79.2,30.01,SE,130,2.0,4.0,85,0.00,,FEW018,0.00,489.00,VWS V14.01,2013-08-16 13:05:00,
2013-08-16 09:10:00,84.7,79.3,30.01,ESE,120,2.0,4.0,84,0.00,,FEW018,0.00,503.00,VWS V14.01,2013-08-16 13:10:00,
2013-08-16 09:15:00,85.2,78.7,30.01,SE,138,0.0,6.0,81,0.00,,FEW018,0.00,538.00,VWS V14.01,2013-08-16 13:15:00,
2013-08-16 09:20:00,85.7,78.4,30.01,ESE,123,1.0,5.0,79,0.00,,FEW018,0.00,427.00,VWS V14.01,2013-08-16 13:20:00,
2013-08-16 09:25:00,86.1,78.4,30.01,ESE,118,1.0,3.0,78,0.00,,FEW018,0.00,592.00,VWS V14.01,2013-08-16 13:25:00,
2013-08-16 09:30:00,86.4,78.3,30.01,ESE,115,2.0,3.0,77,0.00,,FEW018,0.00,626.00,VWS V14.01,2013-08-16 13:30:00,
2013-08-16 09:35:00,86.8,78.3,30.01,ESE,113,1.0,3.0,76,0.00,,FEW018,0.00,622.00,VWS V14.01,2013-08-16 13:35:00,
2013-08-16 09:40:00,86.8,77.9,30.01,East,101,2.0,4.0,75,0.00,,FEW018,0.00,610.00,VWS V14.01,2013-08-16 13:40:00,
2013-08-16 09:45:00,87.1,78.2,30.01,East,100,0.0,3.0,75,0.00,,FEW018,0.00,559.00,VWS V14.01,2013-08-16 13:45:00,
2013-08-16 09:50:00,87.3,78.0,30.01,East,98,2.0,5.0,74,0.00,,FEW018,0.00,592.00,VWS V14.01,2013-08-16 13:50:00,
2013-08-16 09:55:00,87.4,78.1,30.01,East,92,1.0,4.0,74,0.00,,FEW018,0.00,592.00,VWS V14.01,2013-08-16 13:55:00,
2013-08-16 10:00:00,87.6,78.3,30.01,East,88,3.0,4.0,74,0.00,,FEW018,0.00,650.00,VWS V14.01,2013-08-16 14:00:00,
2013-08-16 10:05:00,87.9,77.8,30.01,East,85,1.0,3.0,72,0.00,,FEW018,0.00,733.00,VWS V14.01,2013-08-16 14:05:00,
2013-08-16 10:10:00,88.3,77.7,30.01,ENE,64,4.0,4.0,71,0.00,,FEW018,0.00,745.00,VWS V14.01,2013-08-16 14:10:00,
2013-08-16 10:15:00,88.2,77.6,30.01,ENE,64,3.0,6.0,71,0.00,,FEW018,0.00,715.00,VWS V14.01,2013-08-16 14:15:00,
2013-08-16 10:20:00,88.0,77.8,30.01,ENE,72,1.0,5.0,72,0.00,,FEW018,0.00,466.00,VWS V14.01,2013-08-16 14:20:00,
2013-08-16 10:25:00,88.0,77.8,30.01,ENE,72,0.0,3.0,72,0.00,,FEW018,0.00,313.00,VWS V14.01,2013-08-16 14:25:00,
2013-08-16 10:30:00,87.8,77.7,30.01,ENE,76,0.0,4.0,72,0.00,,FEW018,0.00,309.00,VWS V14.01,2013-08-16 14:30:00,
2013-08-16 10:35:00,87.8,76.8,30.01,ENE,68,3.0,5.0,70,0.00,,FEW018,0.00,352.00,VWS V14.01,2013-08-16 14:35:00,
2013-08-16 10:40:00,87.8,76.8,30.01,East,84,6.0,6.0,70,0.00,,FEW018,0.00,696.00,VWS V14.01,2013-08-16 14:40:00,
2013-08-16 10:45:00,88.3,77.7,30.01,ENE,65,6.0,6.0,71,0.00,,FEW018,0.00,830.00,VWS V14.01,2013-08-16 14:45:00,
2013-08-16 10:50:00,88.7,77.7,30.01,NE,44,2.0,5.0,70,0.00,,FEW018,0.00,826.00,VWS V14.01,2013-08-16 14:50:00,
2013-08-16 10:55:00,88.9,77.4,30.01,East,87,3.0,6.0,69,0.00,,FEW018,0.00,334.00,VWS V14.01,2013-08-16 14:55:00,
2013-08-16 11:00:00,89.2,77.7,30.01,ESE,116,1.0,5.0,69,0.00,,FEW018,0.00,445.00,VWS V14.01,2013-08-16 15:00:00,
2013-08-16 11:05:00,89.0,77.9,30.01,ENE,75,3.0,7.0,70,0.00,,FEW018,0.00,742.00,VWS V14.01,2013-08-16 15:05:00,
2013-08-16 11:10:00,88.7,77.2,30.01,East,88,2.0,11.0,69,0.00,,FEW018,0.00,802.00,VWS V14.01,2013-08-16 15:10:00,
2013-08-16 11:15:00,88.7,77.2,30.01,ESE,107,6.0,7.0,69,0.00,,FEW018,0.00,608.00,VWS V14.01,2013-08-16 15:15:00,
2013-08-16 11:20:00,88.8,77.3,30.01,ESE,107,4.0,5.0,69,0.00,,FEW018,0.00,606.00,VWS V14.01,2013-08-16 15:20:00,
2013-08-16 11:25:00,88.9,77.8,30.01,ESE,105,3.0,7.0,70,0.00,,FEW018,0.00,759.00,VWS V14.01,2013-08-16 15:25:00,
2013-08-16 11:30:00,88.9,77.8,30.01,East,88,5.0,9.0,70,0.00,,FEW018,0.00,462.00,VWS V14.01,2013-08-16 15:30:00,
2013-08-16 11:35:00,88.7,77.2,30.01,East,96,2.0,6.0,69,0.00,,FEW018,0.00,441.00,VWS V14.01,2013-08-16 15:35:00,
2013-08-16 11:40:00,88.5,77.5,30.01,ENE,78,3.0,6.0,70,0.00,,FEW018,0.00,712.00,VWS V14.01,2013-08-16 15:40:00,
2013-08-16 11:45:00,88.5,77.5,30.01,ESE,104,4.0,7.0,70,0.00,,FEW018,0.00,947.00,VWS V14.01,2013-08-16 15:45:00,
2013-08-16 11:50:00,89.1,78.0,30.01,ENE,75,1.0,7.0,70,0.00,,FEW018,0.00,926.00,VWS V14.01,2013-08-16 15:50:00,
2013-08-16 11:55:00,89.4,77.9,30.01,ESE,108,2.0,8.0,69,0.00,,SCT120,0.00,1039.00,VWS V14.01,2013-08-16 15:55:00,
2013-08-16 12:00:00,89.6,77.6,30.01,ESE,115,0.0,10.0,68,0.00,,SCT120,0.00,793.00,VWS V14.01,2013-08-16 16:00:00,
2013-08-16 12:05:00,89.9,77.0,30.01,ESE,117,8.0,8.0,66,0.00,,SCT120,0.00,930.00,VWS V14.01,2013-08-16 16:05:00,
2013-08-16 12:10:00,89.9,77.0,30.01,ESE,113,5.0,12.0,66,0.00,,SCT120,0.00,763.00,VWS V14.01,2013-08-16 16:10:00,
2013-08-16 12:15:00,89.9,77.0,30.01,East,80,5.0,9.0,66,0.00,,SCT120,0.00,1000.00,VWS V14.01,2013-08-16 16:15:00,
2013-08-16 12:20:00,89.6,77.2,30.00,NE,50,1.0,10.0,67,0.00,,SCT120,0.00,756.00,VWS V14.01,2013-08-16 16:20:00,
2013-08-16 12:25:00,89.6,76.7,30.00,SSE,151,4.0,10.0,66,0.00,,SCT120,0.00,603.00,VWS V14.01,2013-08-16 16:25:00,
2013-08-16 12:30:00,89.4,76.6,30.00,ESE,110,2.0,9.0,66,0.00,,SCT120,0.00,738.00,VWS V14.01,2013-08-16 16:30:00,
2013-08-16 12:35:00,89.7,77.7,30.00,NE,51,4.0,7.0,68,0.00,,SCT120,0.00,882.00,VWS V14.01,2013-08-16 16:35:00,
2013-08-16 12:40:00,89.8,76.9,30.00,ENE,63,2.0,6.0,66,0.00,,SCT120,0.00,684.00,VWS V14.01,2013-08-16 16:40:00,
2013-08-16 12:45:00,89.7,76.8,30.00,SE,136,5.0,10.0,66,0.00,,SCT120,0.00,772.00,VWS V14.01,2013-08-16 16:45:00,
2013-08-16 12:50:00,90.1,77.2,30.00,ESE,123,3.0,9.0,66,0.00,,SCT120,0.00,916.00,VWS V14.01,2013-08-16 16:50:00,
2013-08-16 12:55:00,90.5,77.6,30.00,ESE,108,3.0,14.0,66,0.00,,SCT120,0.00,1053.00,VWS V14.01,2013-08-16 16:55:00,
2013-08-16 13:00:00,90.6,77.2,30.00,SE,140,8.0,13.0,65,0.00,,SCT120,0.00,1113.00,VWS V14.01,2013-08-16 17:00:00,
2013-08-16 13:05:00,91.0,77.1,30.00,ESE,105,6.0,11.0,64,0.00,,SCT120,0.00,993.00,VWS V14.01,2013-08-16 17:05:00,
2013-08-16 13:10:00,91.2,77.8,30.00,ENE,68,3.0,10.0,65,0.00,,SCT120,0.00,439.00,VWS V14.01,2013-08-16 17:10:00,
2013-08-16 13:15:00,90.4,77.5,30.00,East,92,5.0,10.0,66,0.00,,SCT120,0.00,958.00,VWS V14.01,2013-08-16 17:15:00,
2013-08-16 13:20:00,89.7,77.7,29.99,ESE,117,4.0,6.0,68,0.00,,SCT120,0.00,677.00,VWS V14.01,2013-08-16 17:20:00,
2013-08-16 13:25:00,90.3,77.9,29.99,East,91,4.0,14.0,67,0.00,,SCT120,0.00,677.00,VWS V14.01,2013-08-16 17:25:00,
2013-08-16 13:30:00,90.6,78.1,29.99,ESE,119,6.0,14.0,67,0.00,,SCT120,0.00,1121.00,VWS V14.01,2013-08-16 17:30:00,
2013-08-16 13:35:00,90.7,78.2,29.99,East,93,5.0,14.0,67,0.00,,SCT120,0.00,1141.00,VWS V14.01,2013-08-16 17:35:00,
2013-08-16 13:40:00,90.8,78.3,29.99,ENE,78,3.0,13.0,67,0.00,,SCT120,0.00,1071.00,VWS V14.01,2013-08-16 17:40:00,
2013-08-16 13:45:00,90.6,78.1,29.99,East,92,6.0,11.0,67,0.00,,SCT120,0.00,1049.00,VWS V14.01,2013-08-16 17:45:00,
2013-08-16 13:50:00,91.2,78.7,29.99,East,92,6.0,10.0,67,0.00,,SCT120,0.00,1014.00,VWS V14.01,2013-08-16 17:50:00,
2013-08-16 13:55:00,91.8,79.3,29.99,ESE,111,3.0,11.0,67,0.00,,SCT020,0.00,958.00,VWS V14.01,2013-08-16 17:55:00,
2013-08-16 14:00:00,91.5,78.5,29.98,East,95,7.0,11.0,66,0.00,,SCT020,0.00,928.00,VWS V14.01,2013-08-16 18:00:00,
2013-08-16 14:05:00,91.3,77.4,29.98,East,100,4.0,12.0,64,0.00,,SCT020,0.00,925.00,VWS V14.01,2013-08-16 18:05:00,
2013-08-16 14:10:00,90.9,77.0,29.98,East,89,3.0,13.0,64,0.00,,SCT020,0.00,492.00,VWS V14.01,2013-08-16 18:10:00,
2013-08-16 14:15:00,91.1,77.7,29.98,ESE,103,7.0,15.0,65,0.00,,SCT020,0.00,888.00,VWS V14.01,2013-08-16 18:15:00,
2013-08-16 14:20:00,90.8,77.9,29.98,ENE,78,8.0,11.0,66,0.00,,SCT020,0.00,916.00,VWS V14.01,2013-08-16 18:20:00,
2013-08-16 14:25:00,91.3,77.9,29.98,SE,129,7.0,14.0,65,0.00,,SCT020,0.00,828.00,VWS V14.01,2013-08-16 18:25:00,
2013-08-16 14:30:00,91.5,77.6,29.97,ENE,63,9.0,12.0,64,0.00,,SCT020,0.00,768.00,VWS V14.01,2013-08-16 18:30:00,
2013-08-16 14:35:00,91.3,77.9,29.97,ESE,113,10.0,12.0,65,0.00,,SCT020,0.00,392.00,VWS V14.01,2013-08-16 18:35:00,
2013-08-16 14:40:00,91.2,76.8,29.97,East,96,6.0,14.0,63,0.00,,SCT020,0.00,911.00,VWS V14.01,2013-08-16 18:40:00,
2013-08-16 14:45:00,90.8,76.9,29.97,ESE,115,4.0,12.0,64,0.00,,SCT020,0.00,1028.00,VWS V14.01,2013-08-16 18:45:00,
2013-08-16 14:50:00,91.1,77.7,29.97,South,175,8.0,17.0,65,0.00,,SCT020,0.00,875.00,VWS V14.01,2013-08-16 18:50:00,
2013-08-16 14:55:00,91.6,77.2,29.97,SE,134,1.0,11.0,63,0.00,,BKN033,0.00,715.00,VWS V14.01,2013-08-16 18:55:00,
2013-08-16 15:00:00,91.5,77.1,29.97,SE,130,4.0,14.0,63,0.00,,BKN033,0.00,916.00,VWS V14.01,2013-08-16 19:00:00,
2013-08-16 15:05:00,92.0,77.1,29.97,SSE,160,4.0,10.0,62,0.00,,BKN033,0.00,981.00,VWS V14.01,2013-08-16 19:05:00,
2013-08-16 15:10:00,92.4,77.0,29.96,SE,127,4.0,13.0,61,0.00,,BKN033,0.00,981.00,VWS V14.01,2013-08-16 19:10:00,
2013-08-16 15:15:00,92.2,77.3,29.96,ESE,119,3.0,11.0,62,0.00,,BKN033,0.00,939.00,VWS V14.01,2013-08-16 19:15:00,
2013-08-16 15:20:00,92.0,76.6,29.96,ENE,77,4.0,11.0,61,0.00,,BKN033,0.00,809.00,VWS V14.01,2013-08-16 19:20:00,
2013-08-16 15:25:00,92.1,77.2,29.96,ESE,105,5.0,10.0,62,0.00,,BKN033,0.00,912.00,VWS V14.01,2013-08-16 19:25:00,
2013-08-16 15:30:00,91.9,77.5,29.96,ESE,117,11.0,13.0,63,0.00,,BKN033,0.00,944.00,VWS V14.01,2013-08-16 19:30:00,
2013-08-16 15:35:00,91.3,77.9,29.95,East,90,0.0,11.0,65,0.00,,BKN033,0.00,854.00,VWS V14.01,2013-08-16 19:35:00,
2013-08-16 15:40:00,91.0,77.6,29.95,ENE,64,4.0,10.0,65,0.00,,BKN033,0.00,341.00,VWS V14.01,2013-08-16 19:40:00,
2013-08-16 15:45:00,90.6,76.8,29.95,East,80,1.0,9.0,64,0.00,,BKN033,0.00,417.00,VWS V14.01,2013-08-16 19:45:00,
2013-08-16 15:50:00,90.8,76.9,29.95,SE,134,9.0,14.0,64,0.00,,BKN033,0.00,788.00,VWS V14.01,2013-08-16 19:50:00,
2013-08-16 15:55:00,90.8,76.5,29.95,East,90,6.0,10.0,63,0.00,,BKN033,0.00,817.00,VWS V14.01,2013-08-16 19:55:00,
2013-08-16 16:00:00,90.6,76.3,29.95,ENE,78,13.0,13.0,63,0.00,,BKN033,0.00,601.00,VWS V14.01,2013-08-16 20:00:00,
2013-08-16 16:05:00,90.6,76.3,29.94,ESE,113,7.0,12.0,63,0.00,,BKN033,0.00,795.00,VWS V14.01,2013-08-16 20:05:00,
2013-08-16 16:10:00,90.8,75.5,29.95,East,81,5.0,12.0,61,0.00,,BKN033,0.00,780.00,VWS V14.01,2013-08-16 20:10:00,
2013-08-16 16:15:00,91.0,76.7,29.95,ENE,67,6.0,12.0,63,0.00,,BKN033,0.00,768.00,VWS V14.01,2013-08-16 20:15:00,
2013-08-16 16:19:00,90.9,76.6,29.94,SE,134,3.0,7.0,63,0.00,,BKN033,0.00,759.00,VWS V14.01,2013-08-16 20:19:00,
2013-08-16 16:25:00,91.2,75.9,29.95,SE,144,4.0,10.0,61,0.00,,BKN033,0.00,744.00,VWS V14.01,2013-08-16 20:25:00,
2013-08-16 16:30:00,91.2,76.4,29.95,SE,144,5.0,9.0,62,0.00,,BKN033,0.00,747.00,VWS V14.01,2013-08-16 20:30:00,
2013-08-16 16:35:00,90.9,77.0,29.95,SE,146,6.0,9.0,64,0.00,,BKN033,0.00,752.00,VWS V14.01,2013-08-16 20:35:00,
2013-08-16 16:40:00,91.2,77.3,29.95,East,89,9.0,12.0,64,0.00,,BKN033,0.00,617.00,VWS V14.01,2013-08-16 20:40:00,
2013-08-16 16:45:00,90.9,76.6,29.95,SE,135,10.0,14.0,63,0.00,,BKN033,0.00,540.00,VWS V14.01,2013-08-16 20:45:00,
2013-08-16 16:50:00,90.6,75.8,29.95,East,95,4.0,11.0,62,0.00,,BKN033,0.00,733.00,VWS V14.01,2013-08-16 20:50:00,
2013-08-16 16:54:00,90.7,76.8,29.95,ESE,107,3.0,13.0,64,0.00,,BKN033,0.00,731.00,VWS V14.01,2013-08-16 20:54:00,
2013-08-16 16:59:00,90.6,76.3,29.95,SE,129,8.0,11.0,63,0.00,,FEW028,0.00,733.00,VWS V14.01,2013-08-16 20:59:00,
2013-08-16 17:04:00,90.4,77.5,29.95,ESE,111,6.0,10.0,66,0.00,,FEW028,0.00,510.00,VWS V14.01,2013-08-16 21:04:00,
2013-08-16 17:09:00,90.2,77.8,29.95,East,101,3.0,9.0,67,0.00,,FEW028,0.00,422.00,VWS V14.01,2013-08-16 21:09:00,
2013-08-16 17:14:00,89.9,77.5,29.95,East,92,4.0,11.0,67,0.00,,FEW028,0.00,550.00,VWS V14.01,2013-08-16 21:14:00,
2013-08-16 17:19:00,90.0,77.6,29.96,ESE,119,3.0,14.0,67,0.00,,FEW028,0.00,615.00,VWS V14.01,2013-08-16 21:19:00,
2013-08-16 17:24:00,90.4,77.9,29.96,ESE,103,6.0,10.0,67,0.00,,FEW028,0.00,617.00,VWS V14.01,2013-08-16 21:24:00,
2013-08-16 17:29:00,90.4,77.5,29.96,East,98,12.0,14.0,66,0.00,,FEW028,0.00,605.00,VWS V14.01,2013-08-16 21:29:00,
2013-08-16 17:34:00,89.9,77.5,29.96,ESE,111,8.0,11.0,67,0.00,,FEW028,0.00,357.00,VWS V14.01,2013-08-16 21:34:00,
2013-08-16 17:39:00,89.5,77.1,29.96,East,84,4.0,13.0,67,0.00,,FEW028,0.00,517.00,VWS V14.01,2013-08-16 21:39:00,
2013-08-16 17:44:00,89.3,77.4,29.95,ESE,104,10.0,11.0,68,0.00,,FEW028,0.00,497.00,VWS V14.01,2013-08-16 21:44:00,
2013-08-16 17:49:00,88.9,77.4,29.95,East,98,2.0,12.0,69,0.00,,FEW028,0.00,482.00,VWS V14.01,2013-08-16 21:49:00,
2013-08-16 17:54:00,88.8,77.3,29.95,East,93,3.0,13.0,69,0.00,,FEW028,0.00,478.00,VWS V14.01,2013-08-16 21:54:00,
2013-08-16 17:59:00,88.8,77.8,29.95,East,86,5.0,11.0,70,0.00,,FEW028,0.00,483.00,VWS V14.01,2013-08-16 21:59:00,
2013-08-16 18:04:00,88.6,77.6,29.95,East,98,11.0,11.0,70,0.00,,FEW028,0.00,439.00,VWS V14.01,2013-08-16 22:04:00,
2013-08-16 18:09:00,88.5,77.5,29.95,East,99,5.0,11.0,70,0.00,,FEW028,0.00,436.00,VWS V14.01,2013-08-16 22:09:00,
2013-08-16 18:14:00,88.3,77.7,29.95,ESE,113,4.0,13.0,71,0.00,,FEW028,0.00,399.00,VWS V14.01,2013-08-16 22:14:00,
2013-08-16 18:19:00,88.3,77.7,29.95,East,91,4.0,10.0,71,0.00,,FEW028,0.00,376.00,VWS V14.01,2013-08-16 22:19:00,
2013-08-16 18:24:00,88.2,77.6,29.95,ESE,115,4.0,11.0,71,0.00,,FEW028,0.00,364.00,VWS V14.01,2013-08-16 22:24:00,
2013-08-16 18:29:00,88.0,77.8,29.95,SE,131,4.0,13.0,72,0.00,,FEW028,0.00,341.00,VWS V14.01,2013-08-16 22:29:00,
2013-08-16 18:34:00,87.8,77.7,29.95,East,92,4.0,12.0,72,0.00,,FEW025,0.00,325.00,VWS V14.01,2013-08-16 22:34:00,
2013-08-16 18:39:00,87.7,77.1,29.95,SSE,157,9.0,9.0,71,0.00,,FEW025,0.00,315.00,VWS V14.01,2013-08-16 22:39:00,
2013-08-16 18:44:00,87.7,76.7,29.95,SE,138,5.0,12.0,70,0.00,,FEW025,0.00,297.00,VWS V14.01,2013-08-16 22:44:00,
2013-08-16 18:49:00,87.9,77.3,29.96,SE,137,4.0,13.0,71,0.00,,FEW025,0.00,292.00,VWS V14.01,2013-08-16 22:49:00,
2013-08-16 18:54:00,88.0,77.8,29.96,SSE,161,7.0,8.0,72,0.00,,FEW025,0.00,294.00,VWS V14.01,2013-08-16 22:54:00,
2013-08-16 18:59:00,88.0,77.8,29.96,SE,134,6.0,10.0,72,0.00,,FEW025,0.00,272.00,VWS V14.01,2013-08-16 22:59:00,
2013-08-16 19:04:00,87.5,77.8,29.96,East,98,10.0,12.0,73,0.00,,FEW025,0.00,227.00,VWS V14.01,2013-08-16 23:04:00,
2013-08-16 19:09:00,87.1,77.8,29.96,SE,142,7.0,7.0,74,0.00,,FEW025,0.00,200.00,VWS V14.01,2013-08-16 23:09:00,
2013-08-16 19:14:00,86.8,77.5,29.96,East,90,1.0,10.0,74,0.00,,FEW025,0.00,190.00,VWS V14.01,2013-08-16 23:14:00,
2013-08-16 19:19:00,86.7,77.4,29.96,SE,125,2.0,9.0,74,0.00,,FEW025,0.00,179.00,VWS V14.01,2013-08-16 23:19:00,
2013-08-16 19:24:00,86.5,77.6,29.96,ESE,109,4.0,8.0,75,0.00,,FEW025,0.00,162.00,VWS V14.01,2013-08-16 23:24:00,
2013-08-16 19:29:00,86.3,77.4,29.96,East,96,4.0,9.0,75,0.00,,FEW025,0.00,151.00,VWS V14.01,2013-08-16 23:29:00,
2013-08-16 19:34:00,86.3,77.8,29.96,East,96,3.0,9.0,76,0.00,,FEW025,0.00,141.00,VWS V14.01,2013-08-16 23:34:00,
2013-08-16 19:39:00,86.1,77.7,29.96,SE,140,7.0,7.0,76,0.00,,FEW025,0.00,132.00,VWS V14.01,2013-08-16 23:39:00,
2013-08-16 19:44:00,85.9,77.5,29.97,ESE,102,3.0,9.0,76,0.00,,FEW025,0.00,130.00,VWS V14.01,2013-08-16 23:44:00,
2013-08-16 19:49:00,85.7,76.9,29.97,SE,128,2.0,9.0,75,0.00,,FEW025,0.00,128.00,VWS V14.01,2013-08-16 23:49:00,
2013-08-16 19:54:00,85.6,77.2,29.98,East,87,4.0,7.0,76,0.00,,FEW025,0.00,127.00,VWS V14.01,2013-08-16 23:54:00,
2013-08-16 19:59:00,85.6,77.2,29.98,SE,136,1.0,11.0,76,0.00,,FEW025,0.00,127.00,VWS V14.01,2013-08-16 23:59:00,
2013-08-16 20:04:00,85.5,77.1,29.98,SE,128,0.0,6.0,76,0.00,,FEW025,0.00,127.00,VWS V14.01,2013-08-17 00:04:00,
2013-08-16 20:09:00,85.4,77.4,29.98,ESE,111,3.0,6.0,77,0.00,,FEW025,0.00,125.00,VWS V14.01,2013-08-17 00:09:00,
2013-08-16 20:14:00,85.4,77.4,29.99,SE,135,4.0,9.0,77,0.00,,FEW025,0.00,125.00,VWS V14.01,2013-08-17 00:14:00,
2013-08-16 20:19:00,85.3,77.7,29.99,ESE,117,0.0,6.0,78,0.00,,FEW025,0.00,125.00,VWS V14.01,2013-08-17 00:19:00,
2013-08-16 20:24:00,85.1,77.5,29.99,SE,135,3.0,6.0,78,0.00,,FEW025,0.00,125.00,VWS V14.01,2013-08-17 00:24:00,
2013-08-16 20:29:00,84.9,76.9,29.99,SE,126,7.0,9.0,77,0.00,,FEW025,0.00,125.00,VWS V14.01,2013-08-17 00:29:00,
2013-08-16 20:34:00,84.8,76.4,29.99,ESE,117,3.0,8.0,76,0.00,,FEW025,0.00,125.00,VWS V14.01,2013-08-17 00:34:00,
2013-08-16 20:39:00,84.7,76.3,29.99,East,91,3.0,6.0,76,0.00,,FEW025,0.00,125.00,VWS V14.01,2013-08-17 00:39:00,
2013-08-16 20:44:00,84.8,76.8,30.00,SE,125,1.0,4.0,77,0.00,,FEW025,0.00,125.00,VWS V14.01,2013-08-17 00:44:00,
2013-08-16 20:49:00,84.7,76.7,30.00,ESE,107,1.0,6.0,77,0.00,,FEW025,0.00,125.00,VWS V14.01,2013-08-17 00:49:00,
2013-08-16 20:54:00,84.7,76.7,30.00,SE,124,3.0,4.0,77,0.00,,FEW025,0.00,125.00,VWS V14.01,2013-08-17 00:54:00,
2013-08-16 20:59:00,84.7,77.1,30.00,ESE,105,4.0,9.0,78,0.00,,FEW025,0.00,125.00,VWS V14.01,2013-08-17 00:59:00,
2013-08-16 21:04:00,84.6,77.0,30.00,ESE,105,0.0,5.0,78,0.00,,FEW025,0.00,125.00,VWS V14.01,2013-08-17 01:04:00,
2013-08-16 21:09:00,84.6,77.4,30.00,ESE,121,2.0,7.0,79,0.00,,FEW025,0.00,125.00,VWS V14.01,2013-08-17 01:09:00,
2013-08-16 21:14:00,84.5,77.7,30.00,SE,126,5.0,9.0,80,0.00,,FEW025,0.00,125.00,VWS V14.01,2013-08-17 01:14:00,
2013-08-16 21:19:00,84.4,77.6,30.01,ESE,113,2.0,6.0,80,0.00,,FEW025,0.00,125.00,VWS V14.01,2013-08-17 01:19:00,
2013-08-16 21:24:00,84.4,77.9,30.01,East,98,0.0,5.0,81,0.00,,FEW025,0.00,125.00,VWS V14.01,2013-08-17 01:24:00,
2013-08-16 21:29:00,84.3,77.8,30.01,ESE,117,0.0,3.0,81,0.00,,FEW025,0.00,125.00,VWS V14.01,2013-08-17 01:29:00,
2013-08-16 21:34:00,84.3,77.8,30.01,SE,124,0.0,4.0,81,0.00,,FEW025,0.00,125.00,VWS V14.01,2013-08-17 01:34:00,
2013-08-16 21:39:00,84.2,78.1,30.01,SE,124,0.0,2.0,82,0.00,,FEW025,0.00,125.00,VWS V14.01,2013-08-17 01:39:00,
2013-08-16 21:44:00,84.2,78.1,30.01,ESE,108,2.0,4.0,82,0.00,,FEW025,0.00,125.00,VWS V14.01,2013-08-17 01:44:00,
2013-08-16 21:49:00,84.2,78.1,30.01,East,99,4.0,5.0,82,0.00,,FEW025,0.00,125.00,VWS V14.01,2013-08-17 01:49:00,
2013-08-16 21:54:00,84.2,78.1,30.02,East,87,0.0,5.0,82,0.00,,FEW025,0.00,125.00,VWS V14.01,2013-08-17 01:54:00,
2013-08-16 21:59:00,84.2,78.1,30.02,ENE,59,1.0,4.0,82,0.00,,FEW025,0.00,125.00,VWS V14.01,2013-08-17 01:59:00,
2013-08-16 22:04:00,84.2,78.1,30.02,ENE,65,2.0,2.0,82,0.00,,FEW025,0.00,125.00,VWS V14.01,2013-08-17 02:04:00,
2013-08-16 22:09:00,84.1,78.4,30.02,ESE,110,2.0,6.0,83,0.00,,FEW025,0.00,125.00,VWS V14.01,2013-08-17 02:09:00,
2013-08-16 22:14:00,84.1,78.4,30.02,ESE,105,0.0,4.0,83,0.00,,FEW025,0.00,125.00,VWS V14.01,2013-08-17 02:14:00,
2013-08-16 22:19:00,84.0,78.3,30.02,SE,134,1.0,6.0,83,0.00,,CLR,0.00,125.00,VWS V14.01,2013-08-17 02:19:00,
2013-08-16 22:24:00,84.0,78.3,30.02,East,99,4.0,4.0,83,0.00,,CLR,0.00,125.00,VWS V14.01,2013-08-17 02:24:00,
2013-08-16 22:29:00,83.9,78.2,30.02,ESE,115,0.0,3.0,83,0.00,,CLR,0.00,125.00,VWS V14.01,2013-08-17 02:29:00,
2013-08-16 22:34:00,83.9,78.2,30.02,ESE,109,4.0,6.0,83,0.00,,CLR,0.00,125.00,VWS V14.01,2013-08-17 02:34:00,
2013-08-16 22:39:00,83.9,78.2,30.02,East,84,1.0,3.0,83,0.00,,CLR,0.00,125.00,VWS V14.01,2013-08-17 02:39:00,
2013-08-16 22:44:00,83.8,78.1,30.01,East,100,2.0,4.0,83,0.00,,CLR,0.00,125.00,VWS V14.01,2013-08-17 02:44:00,
2013-08-16 22:49:00,83.8,78.1,30.02,East,101,1.0,4.0,83,0.00,,CLR,0.00,125.00,VWS V14.01,2013-08-17 02:49:00,
2013-08-16 22:54:00,83.7,78.0,30.02,ESE,103,2.0,3.0,83,0.00,,CLR,0.00,125.00,VWS V14.01,2013-08-17 02:54:00,
2013-08-16 22:59:00,83.7,78.0,30.02,ESE,103,0.0,3.0,83,0.00,,CLR,0.00,125.00,VWS V14.01,2013-08-17 02:59:00,
2013-08-16 23:04:00,83.6,77.9,30.01,East,101,0.0,4.0,83,0.00,,FEW020,0.00,125.00,VWS V14.01,2013-08-17 03:04:00,
2013-08-16 23:09:00,83.6,77.9,30.02,ESE,114,0.0,4.0,83,0.00,,FEW020,0.00,125.00,VWS V14.01,2013-08-17 03:09:00,
2013-08-16 23:14:00,83.6,77.9,30.01,ESE,113,0.0,2.0,83,0.00,,FEW020,0.00,125.00,VWS V14.01,2013-08-17 03:14:00,
2013-08-16 23:19:00,83.6,78.3,30.01,ESE,113,0.0,1.0,84,0.00,,FEW020,0.00,125.00,VWS V14.01,2013-08-17 03:19:00,
2013-08-16 23:24:00,83.6,78.3,30.01,East,94,2.0,3.0,84,0.00,,FEW020,0.00,125.00,VWS V14.01,2013-08-17 03:24:00,
2013-08-16 23:29:00,83.5,78.2,30.01,East,101,0.0,2.0,84,0.00,,FEW020,0.00,125.00,VWS V14.01,2013-08-17 03:29:00,
2013-08-16 23:34:00,83.5,78.2,30.01,ESE,103,0.0,3.0,84,0.00,,FEW020,0.00,125.00,VWS V14.01,2013-08-17 03:34:00,
2013-08-16 23:39:00,83.4,78.1,30.01,ESE,103,0.0,3.0,84,0.00,,FEW020,0.00,125.00,VWS V14.01,2013-08-17 03:39:00,
2013-08-16 23:44:00,83.4,78.1,30.01,ESE,103,1.0,2.0,84,0.00,,FEW020,0.00,125.00,VWS V14.01,2013-08-17 03:44:00,
2013-08-16 23:49:00,83.4,78.1,30.01,ESE,103,0.0,3.0,84,0.00,,FEW020,0.00,125.00,VWS V14.01,2013-08-17 03:49:00,
2013-08-16 23:54:00,83.3,78.0,30.01,ESE,103,1.0,2.0,84,0.00,,FEW020,0.00,125.00,VWS V14.01,2013-08-17 03:54:00,
2013-08-16 23:59:00,83.3,78.0,30.01,ESE,103,1.0,3.0,84,0.00,,FEW020,0.00,125.00,VWS V14.01,2013-08-17 03:59:00,